Flight Track Log - Related Links

Times and Time Zones

All times are in EDT time to prevent confusion due to time zone crossing. See the ASQ4283 flight status page for this flight to view local times or setup timezone preferences in your user account.

Time Position Orientation Groundspeed Altitude Reporting Facility
EDT Latitude Longitude Course Direction KTS MPH feet Rate Location/Type
Thu 12:45:03 PM 29.9531 -95.3422 35° Northeast 165 190 700  Level Houston Center
Thu 12:45:52 PM 29.9214 -95.3628 209° Southwest 203 234 1,800 1,314 Climbing Houston Center
Thu 12:46:48 PM 29.9669 -95.3767 345° North 251 289 3,000 1,253 Climbing Houston Center
Thu 12:47:23 PM 30.0047 -95.3550 26° Northeast 244 281 3,700 619 Climbing Houston Center
Thu 12:48:25 PM 30.0708 -95.3175 26° Northeast 255 293 4,000 677 Climbing Houston Center
Thu 12:49:27 PM 30.1386 -95.2792 26° Northeast 263 303 5,100 1,403 Climbing Houston Center
Thu 12:50:00 PM 30.5115 -94.9141 35° Northeast  Level FlightAware Approximate
Thu 12:50:29 PM 30.1969 -95.2211 41° Northeast 277 319 6,900  Level Houston Center
Thu 12:51:32 PM 30.2564 -95.1656 39° Northeast 275 316 8,800 1,597 Climbing Houston Center
Thu 12:52:33 PM 30.3178 -95.1097 38° Northeast 278 320 10,200 1,122 Climbing Houston Center
Thu 12:53:35 PM 30.3997 -95.0356 38° Northeast 311 358 11,100 823 Climbing Houston Center
Thu 12:54:37 PM 30.4711 -94.9675 39° Northeast 330 380 11,900 930 Climbing Houston Center
Thu 12:56:00 PM 30.6012 -94.8420 32° Northeast  Level FlightAware Approximate
Thu 12:56:42 PM 30.6278 -94.8336 32° Northeast 349 402 14,000  Level Houston Center
Thu 12:57:44 PM 30.7097 -94.7725 33° Northeast 349 402 15,100 1,113 Climbing Houston Center
Thu 12:58:46 PM 30.8069 -94.6961 34° Northeast 350 403 16,300 1,113 Climbing Houston Center
Thu 12:59:48 PM 30.8886 -94.6336 33° Northeast 352 405 17,400 968 Climbing Houston Center
Thu 01:00:50 PM 30.9692 -94.5708 34° Northeast 350 403 18,300 968 Climbing Houston Center
Thu 01:01:52 PM 31.0497 -94.5072 34° Northeast 351 404 19,400 1,016 Climbing Houston Center
Thu 01:02:54 PM 31.1297 -94.4453 34° Northeast 350 403 20,400 1,065 Climbing Houston Center
Thu 01:03:56 PM 31.2208 -94.3756 33° Northeast 330 380 21,600 1,065 Climbing Houston Center
Thu 01:04:58 PM 31.2922 -94.3203 33° Northeast 312 359 22,600 823 Climbing Houston Center
Thu 01:06:00 PM 31.3650 -94.2636 34° Northeast 314 361 23,300 677 Climbing Houston Center
Thu 01:07:02 PM 31.4397 -94.2053 34° Northeast 322 371 24,000 683 Climbing Houston Center
Thu 01:08:03 PM 31.5172 -94.1453 33° Northeast 330 380 24,700 732 Climbing Houston Center
Thu 01:09:05 PM 31.6117 -94.0697 34° Northeast 341 392 25,500 677 Climbing Houston Center
Thu 01:10:07 PM 31.6925 -94.0067 34° Northeast 347 399 26,100 629 Climbing Houston Center
Thu 01:11:09 PM 31.7731 -93.9431 34° Northeast 349 402 26,800 823 Climbing Houston Center
Thu 01:12:11 PM 31.8569 -93.8764 34° Northeast 348 400 27,800 1,016 Climbing Houston Center
Thu 01:13:13 PM 31.9358 -93.8144 34° Northeast 340 391 28,900 1,016 Climbing Houston Center
Thu 01:14:15 PM 32.0119 -93.7536 34° Northeast 331 381 29,900 976 Climbing Houston Center
Thu 01:15:16 PM 32.0831 -93.6961 34° Northeast 326 375 30,900 982 Climbing Houston Center
Thu 01:16:05 PM 32.1467 -93.6497 32° Northeast 323 372 31,700 1,046 Climbing Fort Worth Center
Thu 01:17:05 PM 32.2217 -93.5778 39° Northeast 323 372 32,800 850 Climbing Fort Worth Center
Thu 01:18:05 PM 32.2931 -93.5231 33° Northeast 308 354 33,400 550 Climbing Fort Worth Center
Thu 01:19:05 PM 32.3664 -93.4633 35° Northeast 308 354 33,900 550 Climbing Fort Worth Center
Thu 01:20:05 PM 32.4378 -93.4061 34° Northeast 308 354 34,500 550 Climbing Fort Worth Center
Thu 01:21:05 PM 32.5131 -93.3486 33° Northeast 308 354 35,000 250 Climbing Fort Worth Center
Thu 01:22:05 PM 32.5883 -93.2861 35° Northeast 314 361 35,000  Level Fort Worth Center
Thu 01:23:05 PM 32.6697 -93.2206 34° Northeast 326 375 35,000  Level Fort Worth Center
Thu 01:24:05 PM 32.7528 -93.1525 35° Northeast 346 398 35,000  Level Fort Worth Center
Thu 01:25:05 PM 32.8403 -93.0817 34° Northeast 366 421 35,000  Level Fort Worth Center
Thu 01:26:05 PM 32.9336 -93.0078 34° Northeast 379 436 35,000  Level Fort Worth Center
Thu 01:27:05 PM 33.0250 -92.9314 35° Northeast 389 448 35,000  Level Fort Worth Center
Thu 01:28:05 PM 33.1200 -92.8522 35° Northeast 394 453 35,000  Level Fort Worth Center
Thu 01:29:05 PM 33.2175 -92.7778 33° Northeast 408 470 35,000  Level Fort Worth Center
Thu 01:30:05 PM 33.2975 -92.6817 45° Northeast 413 475 35,000  Level Fort Worth Center
Thu 01:31:05 PM 33.3728 -92.5733 50° Northeast 413 475 35,000  Level Fort Worth Center
Thu 01:33:14 PM 33.5139 -92.3553 52° Northeast 401 461 35,000  Level Memphis Center
Thu 01:34:14 PM 33.5844 -92.2522 51° Northeast 401 461 35,000  Level Memphis Center
Thu 01:35:14 PM 33.6569 -92.1417 52° Northeast 406 467 35,000  Level Memphis Center
Thu 01:36:14 PM 33.7233 -92.0331 54° Northeast 406 467 35,000  Level Memphis Center
Thu 01:37:14 PM 33.7978 -91.9219 51° Northeast 406 467 35,000  Level Memphis Center
Thu 01:38:14 PM 33.8700 -91.8108 52° Northeast 413 475 35,000  Level Memphis Center
Thu 01:39:14 PM 33.9467 -91.6867 53° Northeast 418 481 35,000  Level Memphis Center
Thu 01:40:14 PM 34.0167 -91.5725 53° Northeast 423 487 35,000  Level Memphis Center
Thu 01:41:14 PM 34.0906 -91.4583 52° Northeast 429 494 35,000  Level Memphis Center
Thu 01:42:14 PM 34.1647 -91.3461 51° Northeast 429 494 35,000  Level Memphis Center
Thu 01:43:14 PM 34.2364 -91.2339 52° Northeast 429 494 35,000  Level Memphis Center
Thu 01:44:14 PM 34.3103 -91.1167 53° Northeast 429 494 35,000  Level Memphis Center
Thu 01:45:14 PM 34.3756 -91.0139 52° Northeast 429 494 35,000  Level Memphis Center
Thu 01:46:14 PM 34.4450 -90.8986 54° Northeast 427 491 35,000  Level Memphis Center
Thu 01:47:14 PM 34.5206 -90.7831 52° Northeast 432 497 35,000  Level Memphis Center
Thu 01:48:14 PM 34.5897 -90.6650 55° Northeast 432 497 35,000  Level Memphis Center
Thu 01:49:14 PM 34.6650 -90.5517 51° Northeast 432 497 35,000  Level Memphis Center
Thu 01:50:14 PM 34.7425 -90.4203 54° Northeast 432 497 35,000  Level Memphis Center
Thu 01:51:14 PM 34.8175 -90.3014 52° Northeast 432 497 35,000  Level Memphis Center
Thu 01:52:14 PM 34.8925 -90.1875 51° Northeast 437 503 35,000  Level Memphis Center
Thu 01:53:14 PM 34.9672 -90.0656 53° Northeast 437 503 35,000  Level Memphis Center
Thu 01:54:14 PM 35.0358 -89.9411 56° Northeast 443 510 35,000  Level Memphis Center
Thu 01:55:14 PM 35.0875 -89.7961 66° East 450 518 35,000  Level Memphis Center
Thu 01:56:14 PM 35.1306 -89.6664 68° East 455 524 35,000  Level Memphis Center
Thu 01:57:14 PM 35.1819 -89.5264 66° East 455 524 35,000  Level Memphis Center
Thu 01:58:14 PM 35.2308 -89.3833 67° East 455 524 35,000  Level Memphis Center
Thu 01:59:14 PM 35.2797 -89.2406 67° East 455 524 35,000  Level Memphis Center
Thu 02:00:14 PM 35.3344 -89.0819 67° East 455 524 35,000  Level Memphis Center
Thu 02:01:14 PM 35.3850 -88.9361 67° East 455 524 35,000  Level Memphis Center
Thu 02:02:14 PM 35.4333 -88.7900 68° East 461 531 35,000  Level Memphis Center
Thu 02:03:14 PM 35.4836 -88.6436 67° East 461 531 35,000  Level Memphis Center
Thu 02:04:14 PM 35.5356 -88.4944 67° East 461 531 35,000  Level Memphis Center
Thu 02:05:14 PM 35.5875 -88.3453 67° East 461 531 35,000  Level Memphis Center
Thu 02:06:14 PM 35.6392 -88.1958 67° East 461 531 35,000  Level Memphis Center
Thu 02:07:14 PM 35.6844 -88.0439 70° East 461 531 35,000  Level Memphis Center
Thu 02:08:14 PM 35.7378 -87.8917 67° East 471 542 35,000  Level Memphis Center
Thu 02:09:14 PM 35.7869 -87.7392 68° East 478 550 35,000  Level Memphis Center
Thu 02:10:14 PM 35.8378 -87.5889 67° East 478 550 35,000  Level Memphis Center
Thu 02:11:14 PM 35.8883 -87.4308 68° East 477 549 35,000  Level Memphis Center
Thu 02:12:14 PM 35.9389 -87.2778 68° East 482 555 35,000  Level Memphis Center
Thu 02:13:14 PM 35.9911 -87.1219 67° East 482 555 35,000  Level Memphis Center
Thu 02:14:14 PM 36.0414 -86.9661 68° East 482 555 35,000  Level Memphis Center
Thu 02:15:14 PM 36.0931 -86.8072 68° East 482 555 35,000  Level Memphis Center
Thu 02:16:14 PM 36.1281 -86.6439 75° East 482 555 35,000  Level Memphis Center
Thu 02:17:14 PM 36.1186 -86.4772 94° East 482 555 35,000  Level Memphis Center
Thu 02:18:14 PM 36.1069 -86.3056 95° East 487 560 35,000  Level Memphis Center
Thu 02:19:14 PM 36.0931 -86.1367 96° East 492 566 35,000  Level Memphis Center
Thu 02:21:24 PM 36.0669 -85.7778 95° East 479 551 35,000  Level Atlanta Center
Thu 02:22:24 PM 36.0525 -85.6106 96° East 490 564 35,000  Level Atlanta Center
Thu 02:23:24 PM 36.0400 -85.4408 95° East 497 572 35,000  Level Atlanta Center
Thu 02:24:24 PM 36.0269 -85.2789 96° East 497 572 35,000  Level Atlanta Center
Thu 02:25:24 PM 36.0139 -85.1117 95° East 491 565 35,000  Level Atlanta Center
Thu 02:26:24 PM 36.0028 -84.9397 95° East 486 559 35,000  Level Atlanta Center
Thu 02:27:24 PM 35.9853 -84.7650 97° East 492 566 35,000  Level Atlanta Center
Thu 02:28:24 PM 35.9672 -84.5956 97° East 505 581 35,000  Level Atlanta Center
Thu 02:29:24 PM 35.9533 -84.4442 96° East 500 575 35,000 -100 Level Atlanta Center
Thu 02:30:24 PM 35.9392 -84.2722 96° East 500 575 34,800 -550 Descending Atlanta Center
Thu 02:31:24 PM 35.9228 -84.1081 97° East 500 575 33,900 -900 Descending Atlanta Center
Thu 02:32:24 PM 35.9081 -83.9389 96° East 500 575 33,000 -900 Descending Atlanta Center
Thu 02:33:24 PM 35.8994 -83.7697 94° East 500 575 32,100 -1,550 Descending Atlanta Center
Thu 02:34:24 PM 35.8969 -83.6006 91° East 495 570 29,900 -1,550 Descending Atlanta Center
Thu 02:35:24 PM 35.8942 -83.4339 91° East 489 563 29,000 -450 Descending Atlanta Center
Thu 02:36:24 PM 35.8911 -83.2775 91° East 473 544 29,000 -150 Level Atlanta Center
Thu 02:37:24 PM 35.8881 -83.1494 92° East 440 506 28,700 -700 Descending Atlanta Center
Thu 02:38:24 PM 35.8847 -82.9778 91° East 421 484 27,600 -1,050 Descending Atlanta Center
Thu 02:39:24 PM 35.8814 -82.8394 92° East 416 479 26,600 -950 Descending Atlanta Center
Thu 02:40:24 PM 35.9197 -82.7131 69° East 384 442 25,700 -950 Descending Atlanta Center
Thu 02:41:24 PM 35.9872 -82.6042 53° Northeast 389 448 24,700 -950 Descending Atlanta Center
Thu 02:42:24 PM 36.0486 -82.4978 54° Northeast 390 449 23,800 -950 Descending Atlanta Center
Thu 02:43:24 PM 36.0972 -82.3889 61° Northeast 371 427 22,800 -1,000 Descending Atlanta Center
Thu 02:44:24 PM 36.0561 -82.2767 114° Southeast 329 379 21,800 -900 Descending Atlanta Center
Thu 02:45:24 PM 36.0025 -82.1906 128° Southeast 341 392 21,000 -900 Descending Atlanta Center
Thu 02:46:24 PM 35.9386 -82.0922 129° Southeast 366 421 20,000 -1,000 Descending Atlanta Center
Thu 02:47:24 PM 35.8764 -81.9961 129° Southeast 366 421 19,000 -1,050 Descending Atlanta Center
Thu 02:48:24 PM 35.8536 -81.8842 104° East 338 389 17,900 -1,450 Descending Atlanta Center
Thu 02:49:24 PM 35.8325 -81.7567 102° East 333 383 16,100 -1,922 Descending Atlanta Center
Thu 02:50:07 PM 35.8000 -81.6883 120° Southeast 324 373 14,600 -1,750 Descending Atlanta Center
Thu 02:51:24 PM 35.6925 -81.6325 157° South 299 344 12,600 -1,721 Descending Atlanta Center
Thu 02:52:09 PM 35.6294 -81.6039 160° South 316 364 11,100 -906 Descending Atlanta Center
Thu 02:53:10 PM 35.5675 -81.5317 137° Southeast 308 354 11,000 -443 Descending Atlanta Center
Thu 02:54:11 PM 35.5258 -81.4411 119° Southeast 305 351 10,200 -885 Descending Atlanta Center
Thu 02:55:12 PM 35.5072 -81.3447 103° East 285 328 9,200 -992 Descending Atlanta Center
Thu 02:56:24 PM 35.4881 -81.2381 102° East 276 318 8,000 -1,033 Descending Atlanta Center
Thu 02:57:14 PM 35.4864 -81.1694 92° East 247 284 7,100 -1,027 Descending Atlanta Center
Thu 02:58:15 PM 35.4950 -81.0850 83° East 247 284 6,100 -787 Descending Atlanta Center
Thu 02:59:16 PM 35.4847 -81.0114 100° East 218 251 5,500 -689 Descending Atlanta Center
Thu 03:00:17 PM 35.4319 -80.9853 158° South 202 232 4,700 -984 Descending Atlanta Center
Thu 03:01:24 PM 35.3694 -80.9825 178° South 193 222 3,400 -1,164 Descending Atlanta Center

Login

Don't have an account? Register now (free) for customized features, flight alerts, and more!